Time;durP1;ratioP1;P1;durP2;ratioP2;P2;SDS_P1;SDS_P2;PMS_P1;PMS_P2;Temp;Humidity;BMP_temperature;BMP_pressure;BME280_temperature;BME280_humidity;BME280_pressure;Samples;Min_cycle;Max_cycle;Signal;HPM_P1;HPM_P2
2021/04/14 00:00:36;;;;;;;7.10;0.90;;;4.40;99.90;;;;;;5034795;28;21015;-82
2021/04/14 00:03:10;;;;;;;6.17;1.63;;;4.40;99.90;;;;;;5016762;28;20180;-82
2021/04/14 00:05:38;;;;;;;6.03;1.50;;;4.40;99.90;;;;;;5034554;28;20518;-83
2021/04/14 00:08:05;;;;;;;7.20;1.27;;;4.30;99.90;;;;;;5034645;28;20761;-82
2021/04/14 00:10:33;;;;;;;6.37;1.63;;;4.30;99.90;;;;;;5034346;28;20774;-82
2021/04/14 00:13:00;;;;;;;6.40;1.63;;;4.30;99.90;;;;;;5034406;28;20570;-82
2021/04/14 00:15:37;;;;;;;11.50;1.50;;;4.30;99.90;;;;;;5016745;28;20452;-84
2021/04/14 00:18:03;;;;;;;7.20;1.20;;;4.20;99.90;;;;;;5034747;28;20436;-83
2021/04/14 00:20:29;;;;;;;4.70;1.83;;;4.20;99.90;;;;;;5033798;28;20408;-83
2021/04/14 00:22:55;;;;;;;6.37;2.10;;;4.20;99.90;;;;;;5035007;28;20416;-81
2021/04/14 00:25:26;;;;;;;10.10;2.93;;;4.20;99.90;;;;;;5030924;28;20181;-85
2021/04/14 00:27:52;;;;;;;10.03;1.80;;;4.10;99.90;;;;;;5023742;28;20179;-81
2021/04/14 00:30:19;;;;;;;6.80;2.33;;;4.10;99.90;;;;;;5041611;28;20538;-95
2021/04/14 00:32:48;;;;;;;16.17;2.77;;;4.00;99.90;;;;;;5036914;28;20514;-81
2021/04/14 00:35:15;;;;;;;6.70;2.57;;;4.00;99.90;;;;;;5036683;28;20408;-86
2021/04/14 00:37:41;;;;;;;4.77;2.40;;;4.00;99.90;;;;;;5035635;28;20424;-89
2021/04/14 00:40:11;;;;;;;6.67;2.00;;;4.00;99.90;;;;;;5035414;28;20419;-81
2021/04/14 00:42:36;;;;;;;8.83;2.67;;;4.00;99.90;;;;;;5018034;28;20174;-95
2021/04/14 00:45:03;;;;;;;7.47;2.60;;;4.10;99.90;;;;;;5036054;28;20503;-95
2021/04/14 00:47:32;;;;;;;12.37;2.87;;;4.20;99.90;;;;;;5035772;28;20189;-96
2021/04/14 00:49:58;;;;;;;9.20;2.07;;;4.20;99.90;;;;;;5039150;28;20499;-81
2021/04/14 00:52:27;;;;;;;5.07;1.90;;;4.20;99.90;;;;;;5041202;28;20469;-81
2021/04/14 00:54:52;;;;;;;6.40;2.13;;;4.10;99.90;;;;;;5036311;28;20440;-81
2021/04/14 00:57:18;;;;;;;4.70;1.40;;;4.10;99.90;;;;;;5036609;28;20418;-81
2021/04/14 00:59:43;;;;;;;5.93;2.33;;;4.10;99.90;;;;;;5036647;28;20162;-82
2021/04/14 01:02:09;;;;;;;8.30;1.57;;;4.20;99.90;;;;;;5035481;28;20201;-81
2021/04/14 01:04:35;;;;;;;4.70;1.93;;;4.20;99.90;;;;;;5042090;28;20629;-89
2021/04/14 01:07:01;;;;;;;5.43;1.80;;;4.20;99.90;;;;;;5042647;28;20171;-81
2021/04/14 01:09:27;;;;;;;5.37;1.90;;;4.10;99.90;;;;;;5041872;28;20434;-88
2021/04/14 01:11:54;;;;;;;4.67;1.33;;;4.10;99.90;;;;;;5040363;28;20243;-81
2021/04/14 01:14:20;;;;;;;6.93;1.77;;;4.00;99.90;;;;;;5019264;28;20181;-89
2021/04/14 01:16:45;;;;;;;10.83;2.23;;;4.00;99.90;;;;;;5036000;28;20438;-81
2021/04/14 01:19:11;;;;;;;11.93;1.30;;;4.00;99.90;;;;;;5017270;28;20187;-81
2021/04/14 01:21:40;;;;;;;7.80;1.80;;;3.90;99.90;;;;;;5035128;28;20228;-81
2021/04/14 01:24:17;;;;;;;10.70;3.23;;;3.90;99.90;;;;;;5034816;28;20465;-86
2021/04/14 01:26:43;;;;;;;5.30;1.80;;;3.80;99.90;;;;;;5035079;28;20467;-81
2021/04/14 01:29:12;;;;;;;8.63;1.50;;;3.80;99.90;;;;;;5034709;28;20413;-93
2021/04/14 01:31:38;;;;;;;6.00;1.73;;;3.70;99.90;;;;;;5016454;28;20955;-82
2021/04/14 01:34:19;;;;;;;5.33;2.23;;;3.70;99.90;;;;;;5035976;28;20978;-81
2021/04/14 01:36:45;;;;;;;5.10;2.40;;;3.70;99.90;;;;;;5037083;28;20503;-95
2021/04/14 01:39:11;;;;;;;7.43;2.10;;;3.70;99.90;;;;;;5036786;28;20417;-94
2021/04/14 01:41:38;;;;;;;8.00;2.10;;;3.70;99.90;;;;;;5036647;28;20409;-81
2021/04/14 01:44:04;;;;;;;3.90;1.50;;;3.80;99.90;;;;;;5037363;28;20416;-82
2021/04/14 01:46:31;;;;;;;11.70;3.27;;;3.80;99.90;;;;;;5018503;28;20778;-82
2021/04/14 01:48:57;;;;;;;6.97;1.57;;;3.90;99.90;;;;;;5034822;28;20415;-82
2021/04/14 01:51:25;;;;;;;8.53;1.90;;;3.90;99.90;;;;;;5034170;28;20411;-83
2021/04/14 01:53:51;;;;;;;7.00;2.90;;;3.90;99.90;;;;;;5034169;28;20186;-83
2021/04/14 01:56:17;;;;;;;4.80;2.20;;;3.90;99.90;;;;;;5033968;28;20420;-91
2021/04/14 01:58:44;;;;;;;13.30;2.77;;;3.80;99.90;;;;;;5034370;28;20427;-81
2021/04/14 02:01:11;;;;;;;6.90;2.13;;;3.80;99.90;;;;;;5035219;28;20258;-82
2021/04/14 02:03:39;;;;;;;5.50;1.40;;;3.70;99.90;;;;;;5037984;28;20412;-84
2021/04/14 02:06:08;;;;;;;7.10;2.27;;;3.60;99.90;;;;;;5036153;28;20452;-82
2021/04/14 02:08:34;;;;;;;6.23;2.47;;;3.60;99.90;;;;;;5035994;28;20441;-81
2021/04/14 02:10:59;;;;;;;16.07;3.23;;;3.60;99.90;;;;;;5036553;28;20491;-81
2021/04/14 02:13:28;;;;;;;13.53;2.17;;;3.50;99.90;;;;;;5037855;28;20467;-82
2021/04/14 02:15:54;;;;;;;6.37;2.20;;;3.50;99.90;;;;;;5019919;28;20208;-88
2021/04/14 02:18:20;;;;;;;10.73;2.27;;;3.40;99.90;;;;;;5038010;28;20988;-82
2021/04/14 02:20:47;;;;;;;7.23;2.63;;;3.40;99.90;;;;;;5036350;28;20194;-82
2021/04/14 02:23:23;;;;;;;13.90;2.87;;;3.30;99.90;;;;;;5036993;28;20520;-81
2021/04/14 02:25:49;;;;;;;9.93;1.80;;;3.20;99.90;;;;;;5040772;28;20425;-81
2021/04/14 02:28:16;;;;;;;9.13;3.83;;;3.20;99.90;;;;;;5040393;28;20456;-81
2021/04/14 02:30:42;;;;;;;7.73;3.13;;;3.20;99.90;;;;;;5037141;28;20433;-93
2021/04/14 02:33:09;;;;;;;10.03;2.47;;;3.20;99.90;;;;;;5025157;28;20986;-83
2021/04/14 02:35:36;;;;;;;10.77;1.87;;;3.10;99.90;;;;;;5026715;28;20458;-94
2021/04/14 02:38:02;;;;;;;8.83;3.10;;;3.00;99.90;;;;;;5028430;28;20444;-81
2021/04/14 02:40:28;;;;;;;12.97;3.50;;;3.00;99.90;;;;;;5022577;28;20830;-81
2021/04/14 02:42:56;;;;;;;6.57;2.87;;;3.10;99.90;;;;;;5020282;28;20479;-81
2021/04/14 02:45:27;;;;;;;9.37;3.47;;;3.00;99.90;;;;;;5015490;28;20173;-81
2021/04/14 02:47:52;;;;;;;6.10;2.97;;;3.00;99.90;;;;;;5011878;28;20939;-81
2021/04/14 02:50:18;;;;;;;10.50;3.97;;;3.00;99.90;;;;;;5024254;28;20426;-82
2021/04/14 02:52:44;;;;;;;7.73;2.70;;;3.00;99.90;;;;;;5026641;28;20201;-82
2021/04/14 02:55:12;;;;;;;7.40;2.70;;;3.00;99.90;;;;;;5022540;28;20404;-81
2021/04/14 02:57:38;;;;;;;6.13;2.73;;;3.00;99.90;;;;;;5022289;28;20459;-84
2021/04/14 03:00:08;;;;;;;4.47;2.80;;;3.00;99.90;;;;;;5029503;28;20441;-81
2021/04/14 03:02:37;;;;;;;9.13;3.53;;;2.90;99.90;;;;;;5032058;28;20238;-81
2021/04/14 03:05:05;;;;;;;6.40;2.37;;;2.90;99.90;;;;;;5021643;28;20452;-82
2021/04/14 03:07:30;;;;;;;9.60;3.20;;;2.90;99.90;;;;;;5026617;28;20435;-81
2021/04/14 03:09:56;;;;;;;10.33;3.50;;;2.90;99.90;;;;;;5030679;28;20505;-81
2021/04/14 03:12:21;;;;;;;7.40;2.47;;;2.90;99.90;;;;;;5031289;28;20198;-82
2021/04/14 03:14:47;;;;;;;9.67;3.03;;;2.90;99.90;;;;;;5032740;28;20635;-82
2021/04/14 03:17:13;;;;;;;6.50;2.60;;;2.80;99.90;;;;;;5032741;28;20201;-81
2021/04/14 03:19:38;;;;;;;4.87;4.40;;;2.80;99.90;;;;;;5032660;28;20170;-82
2021/04/14 03:22:04;;;;;;;6.17;3.00;;;2.80;99.90;;;;;;5032666;28;20173;-81
2021/04/14 03:24:30;;;;;;;4.70;2.17;;;2.70;99.90;;;;;;5032363;28;20646;-82
2021/04/14 03:26:56;;;;;;;7.43;3.40;;;2.70;99.90;;;;;;5032707;28;20411;-81
2021/04/14 03:29:22;;;;;;;6.97;3.17;;;2.70;99.90;;;;;;5032695;28;20695;-82
2021/04/14 03:31:47;;;;;;;9.27;2.90;;;2.70;99.90;;;;;;5032444;28;20286;-81
2021/04/14 03:34:13;;;;;;;3.73;2.77;;;2.60;99.90;;;;;;5032594;28;20207;-82
2021/04/14 03:36:39;;;;;;;7.20;2.30;;;2.60;99.90;;;;;;5032560;28;20589;-82
2021/04/14 03:39:06;;;;;;;6.80;3.30;;;2.60;99.90;;;;;;5032553;28;20421;-81
2021/04/14 03:41:32;;;;;;;7.17;2.90;;;2.50;99.90;;;;;;5032837;28;20172;-82
2021/04/14 03:43:59;;;;;;;6.30;2.77;;;2.50;99.90;;;;;;5032922;28;20417;-82
2021/04/14 03:46:26;;;;;;;11.40;3.13;;;2.40;99.90;;;;;;5015029;28;20452;-81
2021/04/14 03:48:52;;;;;;;12.03;3.43;;;2.30;99.90;;;;;;5032694;28;20428;-81
2021/04/14 03:51:19;;;;;;;6.67;3.20;;;2.30;99.90;;;;;;5032770;28;20836;-82
2021/04/14 03:53:45;;;;;;;4.97;2.80;;;2.20;99.90;;;;;;5032256;28;20535;-82
2021/04/14 03:56:13;;;;;;;4.67;2.50;;;2.20;99.90;;;;;;5035664;28;20842;-82
2021/04/14 03:58:43;;;;;;;6.83;2.57;;;2.10;99.90;;;;;;5035926;28;20166;-82
2021/04/14 04:01:15;;;;;;;6.70;3.53;;;2.10;99.90;;;;;;5018191;28;20410;-81
2021/04/14 04:03:44;;;;;;;7.70;3.00;;;2.10;99.90;;;;;;5035794;28;20426;-81
2021/04/14 04:06:10;;;;;;;7.97;2.70;;;2.10;99.90;;;;;;5035711;28;20453;-81
2021/04/14 04:08:35;;;;;;;4.53;2.73;;;2.10;99.90;;;;;;5035707;28;20409;-82
2021/04/14 04:11:01;;;;;;;7.33;3.23;;;2.00;99.90;;;;;;5035932;28;20162;-82
2021/04/14 04:13:31;;;;;;;6.07;2.80;;;2.00;99.90;;;;;;5035662;28;20280;-81
2021/04/14 04:16:00;;;;;;;6.73;3.07;;;2.00;99.90;;;;;;5035804;28;20960;-81
2021/04/14 04:18:29;;;;;;;6.27;2.90;;;2.00;99.90;;;;;;5035560;28;20420;-81
2021/04/14 04:20:55;;;;;;;12.13;3.30;;;1.90;99.90;;;;;;5035751;28;20405;-81
2021/04/14 04:23:22;;;;;;;8.90;3.10;;;1.90;99.90;;;;;;5035420;28;20449;-82
2021/04/14 04:25:48;;;;;;;6.27;3.00;;;1.90;99.90;;;;;;5035587;28;20428;-82
2021/04/14 04:28:14;;;;;;;8.40;2.90;;;1.90;99.90;;;;;;5035496;28;20911;-81
2021/04/14 04:30:42;;;;;;;13.60;4.20;;;1.90;99.90;;;;;;5035540;28;20178;-81
2021/04/14 04:33:08;;;;;;;7.00;3.10;;;1.80;99.90;;;;;;5017525;28;20273;-81
2021/04/14 04:35:43;;;;;;;4.90;2.93;;;1.80;99.90;;;;;;5035252;28;20405;-81
2021/04/14 04:38:09;;;;;;;7.53;3.50;;;1.90;99.90;;;;;;5034925;28;20658;-81
2021/04/14 04:40:34;;;;;;;11.23;4.40;;;1.90;99.90;;;;;;5035242;28;20421;-81
2021/04/14 04:43:00;;;;;;;9.47;4.00;;;2.00;99.90;;;;;;5017411;28;20538;-82
2021/04/14 04:45:28;;;;;;;9.30;3.20;;;2.10;99.90;;;;;;5034936;28;20173;-81
2021/04/14 04:47:55;;;;;;;9.03;3.10;;;2.10;99.90;;;;;;5033786;28;20321;-81
2021/04/14 04:50:26;;;;;;;5.73;2.67;;;2.20;99.90;;;;;;5016886;28;20413;-81
2021/04/14 04:52:53;;;;;;;9.17;2.93;;;2.30;99.90;;;;;;4998882;28;20829;-81
2021/04/14 04:55:25;;;;;;;10.90;3.10;;;2.30;99.90;;;;;;5015191;28;20980;-80
2021/04/14 04:57:51;;;;;;;7.00;2.10;;;2.40;99.90;;;;;;5020758;28;20780;-81
2021/04/14 05:00:17;;;;;;;8.20;3.27;;;2.40;99.90;;;;;;5028469;28;20417;-81
2021/04/14 05:02:43;;;;;;;6.93;2.43;;;2.50;99.90;;;;;;5022985;28;20525;-82
2021/04/14 05:05:13;;;;;;;5.20;2.30;;;2.60;99.90;;;;;;5006792;28;20863;-81
2021/04/14 05:07:39;;;;;;;8.40;2.50;;;2.60;99.90;;;;;;5004340;28;20652;-82
2021/04/14 05:10:05;;;;;;;7.40;2.80;;;2.70;99.90;;;;;;5007006;28;20437;-82
2021/04/14 05:12:31;;;;;;;6.53;1.93;;;2.80;99.90;;;;;;5024552;28;20222;-81
2021/04/14 05:14:57;;;;;;;5.63;2.13;;;2.90;99.90;;;;;;5021032;28;20511;-81
2021/04/14 05:17:22;;;;;;;5.43;2.40;;;3.00;99.90;;;;;;5007844;28;20178;-81
2021/04/14 05:19:48;;;;;;;9.70;4.33;;;3.10;99.90;;;;;;5022943;28;20647;-84
2021/04/14 05:22:14;;;;;;;4.20;1.97;;;3.30;99.90;;;;;;5025082;28;20472;-84
2021/04/14 05:24:39;;;;;;;5.80;2.40;;;3.30;99.90;;;;;;5024685;28;20179;-81
2021/04/14 05:27:05;;;;;;;12.37;3.50;;;3.40;99.90;;;;;;5024791;28;20189;-85
2021/04/14 05:29:31;;;;;;;8.77;2.73;;;3.40;99.90;;;;;;5004761;28;20179;-84
2021/04/14 05:31:57;;;;;;;6.20;3.47;;;3.50;99.90;;;;;;5023830;28;20471;-81
2021/04/14 05:34:23;;;;;;;6.07;2.57;;;4.10;99.90;;;;;;5022994;28;20218;-81
2021/04/14 05:36:50;;;;;;;3.50;1.73;;;5.10;99.90;;;;;;5006370;28;20418;-81
2021/04/14 05:39:18;;;;;;;5.23;1.47;;;6.20;99.90;;;;;;5027464;28;20206;-92
2021/04/14 05:41:44;;;;;;;3.33;1.27;;;7.20;66.10;;;;;;5015278;28;20445;-84
2021/04/14 05:44:09;;;;;;;5.63;1.10;;;8.00;1.00;;;;;;5022847;28;20419;-81
2021/04/14 05:46:35;;;;;;;15.13;2.63;;;8.60;1.00;;;;;;5040399;28;20178;-84
2021/04/14 05:49:00;;;;;;;2.23;0.43;;;9.00;1.00;;;;;;5032442;28;20167;-94
2021/04/14 05:51:31;;;;;;;5.40;1.93;;;9.70;1.00;;;;;;5054523;23;20236;-82
2021/04/14 05:53:57;;;;;;;3.47;0.80;;;10.30;99.90;;;;;;5095185;28;20249;-81
2021/04/14 05:56:23;;;;;;;4.80;0.70;;;10.90;99.90;;;;;;5098354;28;20419;-82
2021/04/14 05:58:50;;;;;;;6.13;0.87;;;11.50;99.90;;;;;;5094850;28;20413;-81
2021/04/14 06:01:19;;;;;;;3.97;0.77;;;12.10;1.00;;;;;;5100491;28;20466;-82
2021/04/14 06:03:47;;;;;;;2.87;0.67;;;12.30;1.00;;;;;;5100378;28;20410;-82
2021/04/14 06:06:12;;;;;;;6.90;1.03;;;12.00;1.00;;;;;;5095569;28;20427;-81
2021/04/14 06:08:38;;;;;;;3.23;0.50;;;11.10;99.90;;;;;;5095315;22;20496;-81
2021/04/14 06:11:03;;;;;;;7.73;2.07;;;10.30;1.00;;;;;;5084794;28;20242;-81
2021/04/14 06:13:30;;;;;;;6.70;1.57;;;9.40;99.90;;;;;;5061945;28;20312;-81
2021/04/14 06:15:56;;;;;;;2.73;1.30;;;8.80;1.00;;;;;;5077474;28;20172;-81
2021/04/14 06:18:25;;;;;;;4.10;1.60;;;8.50;1.00;;;;;;5078190;28;20416;-82
2021/04/14 06:20:51;;;;;;;11.37;2.13;;;8.30;1.00;;;;;;5071634;22;20540;-82
2021/04/14 06:23:20;;;;;;;3.43;1.27;;;8.10;1.00;;;;;;5083852;28;20431;-81
2021/04/14 06:28:32;;;;;;;8.57;1.07;;;7.70;1.00;;;;;;5081495;28;20939;-81
2021/04/14 06:30:58;;;;;;;3.97;1.23;;;8.10;1.00;;;;;;5081110;28;20406;-81
2021/04/14 06:33:27;;;;;;;3.23;1.10;;;8.40;1.00;;;;;;5079426;28;20192;-81
2021/04/14 06:35:55;;;;;;;4.07;1.40;;;8.50;1.00;;;;;;5078687;28;20177;-81
2021/04/14 06:38:24;;;;;;;5.57;1.60;;;8.60;1.00;;;;;;5072842;28;20411;-82
2021/04/14 06:44:17;;;;;;;4.13;1.17;;;9.30;1.00;;;;;;5063458;28;20437;-81
2021/04/14 06:46:47;;;;;;;5.07;1.70;;;9.30;1.00;;;;;;5064301;28;20506;-82
2021/04/14 06:49:37;;;;;;;6.63;1.50;;;9.00;1.00;;;;;;5073580;28;20407;-81
2021/04/14 06:52:21;;;;;;;3.77;1.07;;;9.00;1.00;;;;;;5047670;28;20474;-81
2021/04/14 06:54:58;;;;;;;3.70;1.10;;;9.70;1.00;;;;;;5072280;28;20913;-81
2021/04/14 06:57:47;;;;;;;6.40;1.27;;;10.70;99.90;;;;;;5070560;28;20403;-85
2021/04/14 07:00:35;;;;;;;3.13;0.50;;;11.90;1.00;;;;;;5071776;28;20540;-85
2021/04/14 07:03:44;;;;;;;15.47;2.13;;;11.80;99.90;;;;;;5071836;28;20765;-84
2021/04/14 07:06:13;;;;;;;2.23;0.77;;;12.50;99.90;;;;;;5032844;28;20431;-87
2021/04/14 07:08:44;;;;;;;7.13;1.90;;;14.00;99.90;;;;;;5071043;28;20423;-85
2021/04/14 07:11:19;;;;;;;3.93;1.33;;;14.60;1.00;;;;;;5054034;28;20409;-86
2021/04/14 07:13:47;;;;;;;4.00;1.37;;;15.30;99.90;;;;;;5053592;28;20479;-85
2021/04/14 07:16:37;;;;;;;3.90;1.50;;;16.00;99.90;;;;;;5071127;28;20466;-84
2021/04/14 07:19:21;;;;;;;3.43;0.83;;;16.70;99.90;;;;;;5033600;28;20486;-85
2021/04/14 07:21:53;;;;;;;5.17;1.03;;;17.10;99.90;;;;;;5032997;28;20461;-86
2021/04/14 07:24:34;;;;;;;3.67;0.97;;;16.60;99.90;;;;;;5051069;28;20410;-85
2021/04/14 07:27:18;;;;;;;2.23;0.83;;;15.40;99.90;;;;;;5051509;28;20406;-88
2021/04/14 07:29:54;;;;;;;5.10;0.73;;;14.30;99.90;;;;;;5052523;28;20401;-86
2021/04/14 07:32:38;;;;;;;5.63;0.73;;;13.80;99.90;;;;;;5055321;28;20469;-86
2021/04/14 07:35:33;;;;;;;2.67;0.40;;;13.90;99.90;;;;;;5055316;28;20819;-87
2021/04/14 07:38:07;;;;;;;3.00;0.50;;;14.70;99.90;;;;;;5040369;28;20899;-84
2021/04/14 07:40:53;;;;;;;3.03;0.50;;;14.40;99.90;;;;;;5055192;28;20990;-83
2021/04/14 07:43:53;;;;;;;3.10;0.53;;;13.00;99.90;;;;;;5055159;28;20957;-82
2021/04/14 07:46:22;;;;;;;4.53;0.40;;;12.60;99.90;;;;;;5054851;28;20416;-82
2021/04/14 07:48:51;;;;;;;2.80;0.60;;;;;;;;;;5054868;28;20440;-84
2021/04/14 07:51:18;;;;;;;5.50;1.10;;;10.60;1.00;;;;;;5038752;28;20808;-84
2021/04/14 07:54:07;;;;;;;4.90;0.73;;;10.60;99.90;;;;;;5047719;28;20471;-85
2021/04/14 07:56:43;;;;;;;5.07;0.87;;;11.90;99.90;;;;;;5074705;28;20937;-86
2021/04/14 07:59:27;;;;;;;7.17;0.97;;;12.60;99.90;;;;;;5074896;28;20413;-83
2021/04/14 08:01:59;;;;;;;5.10;0.93;;;12.30;1.00;;;;;;5071169;28;20434;-85
2021/04/14 08:04:37;;;;;;;2.80;0.20;;;12.10;1.00;;;;;;5054750;28;20437;-85
2021/04/14 08:07:07;;;;;;;5.53;0.20;;;11.40;1.00;;;;;;5036047;28;20980;-85
2021/04/14 08:09:52;;;;;;;2.57;0.60;;;10.80;99.90;;;;;;5054560;28;20486;-84
2021/04/14 08:13:03;;;;;;;3.80;0.90;;;10.50;44.70;;;;;;5054541;28;20452;-83
2021/04/14 08:15:42;;;;;;;3.57;0.70;;;11.20;99.90;;;;;;5034349;28;20552;-85
2021/04/14 08:18:21;;;;;;;2.37;0.30;;;13.10;1.00;;;;;;5036673;28;20428;-87
2021/04/14 08:20:49;;;;;;;1.73;0.40;;;14.70;99.90;;;;;;5055557;28;20491;-90
2021/04/14 08:23:22;;;;;;;3.50;0.50;;;16.70;99.90;;;;;;5054661;28;20542;-84
2021/04/14 08:25:54;;;;;;;2.97;0.90;;;16.80;34.00;;;;;;5036491;28;20928;-86
2021/04/14 08:28:34;;;;;;;3.00;0.67;;;16.10;16.00;;;;;;5036479;28;20779;-83
2021/04/14 08:31:47;;;;;;;5.60;0.27;;;15.80;12.10;;;;;;5054097;28;20919;-87
2021/04/14 08:34:35;;;;;;;7.40;0.83;;;15.40;19.10;;;;;;5053856;28;20460;-84
2021/04/14 08:37:02;;;;;;;2.03;0.30;;;14.20;8.80;;;;;;5053729;28;20427;-82
2021/04/14 08:39:42;;;;;;;7.53;0.67;;;13.30;30.70;;;;;;5053969;28;20408;-83
2021/04/14 08:42:31;;;;;;;4.40;0.63;;;12.70;96.80;;;;;;5053521;28;20450;-84
2021/04/14 08:45:12;;;;;;;3.10;0.77;;;11.70;99.90;;;;;;5053959;28;20496;-84
2021/04/14 08:48:01;;;;;;;1.67;0.27;;;10.60;1.00;;;;;;5035948;28;20477;-83
2021/04/14 08:50:30;;;;;;;7.13;0.77;;;9.90;1.00;;;;;;5035043;28;20506;-82
2021/04/14 08:53:01;;;;;;;3.80;0.67;;;9.50;1.00;;;;;;5035442;28;21007;-84
2021/04/14 08:55:29;;;;;;;4.57;0.67;;;9.20;1.00;;;;;;5053622;28;20405;-82
2021/04/14 08:57:58;;;;;;;2.63;0.30;;;9.10;1.00;;;;;;5053731;28;20412;-84
2021/04/14 09:00:25;;;;;;;2.50;0.43;;;10.40;1.00;;;;;;5053679;28;20952;-83
2021/04/14 09:02:52;;;;;;;1.07;0.40;;;;;;;;;;5053434;28;20413;-83
2021/04/14 09:05:19;;;;;;;3.37;0.60;;;;;;;;;;5053737;28;20476;-83
2021/04/14 09:07:48;;;;;;;3.60;0.40;;;16.50;99.90;;;;;;5035059;28;20920;-84
2021/04/14 09:10:38;;;;;;;1.70;0.20;;;18.30;99.90;;;;;;5053602;28;20416;-84
2021/04/14 09:13:06;;;;;;;4.37;0.30;;;19.60;66.40;;;;;;5053287;28;20526;-84
2021/04/14 09:15:32;;;;;;;2.20;0.93;;;20.40;35.80;;;;;;5053364;28;20412;-85
2021/04/14 09:18:01;;;;;;;4.07;0.97;;;21.80;99.90;;;;;;5053316;28;20451;-84
2021/04/14 09:20:36;;;;;;;1.43;0.40;;;22.60;99.90;;;;;;5053189;28;20413;-84
2021/04/14 09:23:06;;;;;;;4.40;0.60;;;22.40;99.90;;;;;;5034763;28;20460;-85
2021/04/14 09:25:43;;;;;;;5.50;0.87;;;22.50;99.90;;;;;;5053215;28;20465;-83
2021/04/14 09:28:14;;;;;;;3.70;0.60;;;22.40;99.90;;;;;;5053081;28;20425;-83
2021/04/14 09:30:54;;;;;;;3.23;0.50;;;21.10;1.00;;;;;;5053036;28;20503;-84
2021/04/14 09:33:50;;;;;;;2.47;0.40;;;20.90;1.00;;;;;;5052952;28;20517;-83
2021/04/14 09:36:31;;;;;;;2.67;0.40;;;20.30;1.00;;;;;;5035359;28;20512;-84
2021/04/14 09:39:14;;;;;;;1.80;0.30;;;;;;;;;;5052464;28;20551;-84
2021/04/14 09:41:40;;;;;;;6.00;0.53;;;;;;;;;;5053007;28;20407;-84
2021/04/14 09:44:16;;;;;;;2.77;0.33;;;17.80;1.00;;;;;;5063922;28;20930;-84
2021/04/14 09:46:55;;;;;;;4.43;0.77;;;17.50;1.00;;;;;;5070915;28;20403;-83
2021/04/14 09:49:35;;;;;;;2.03;0.27;;;;;;;;;;5070975;28;20409;-83
2021/04/14 09:52:02;;;;;;;3.63;0.40;;;15.30;1.00;;;;;;5065508;28;20521;-83
2021/04/14 09:54:32;;;;;;;2.20;0.30;;;14.50;1.00;;;;;;5072758;28;20460;-84
2021/04/14 09:57:00;;;;;;;2.60;0.43;;;14.20;1.00;;;;;;5072569;28;20417;-83
2021/04/14 09:59:36;;;;;;;5.80;1.00;;;14.00;1.00;;;;;;5072455;28;20455;-83
2021/04/14 10:02:08;;;;;;;7.37;2.23;;;14.00;1.00;;;;;;5072239;28;20409;-84
2021/04/14 10:04:36;;;;;;;2.17;0.60;;;14.40;1.00;;;;;;5054311;28;20415;-84
2021/04/14 10:07:24;;;;;;;2.77;0.30;;;14.20;1.00;;;;;;5054122;28;20423;-85
2021/04/14 10:09:50;;;;;;;1.83;0.33;;;13.70;1.00;;;;;;5071957;28;20425;-84
2021/04/14 10:12:19;;;;;;;2.50;0.80;;;13.00;9.30;;;;;;5072458;28;20972;-84
2021/04/14 10:14:51;;;;;;;3.13;0.80;;;12.80;15.00;;;;;;5054483;28;20226;-83
2021/04/14 10:17:22;;;;;;;3.47;0.60;;;12.80;45.70;;;;;;5054136;28;20454;-83
2021/04/14 10:19:56;;;;;;;3.67;0.50;;;13.00;62.90;;;;;;5072252;28;21147;-83
2021/04/14 10:22:37;;;;;;;4.40;0.93;;;13.70;98.10;;;;;;5071479;28;20541;-84
2021/04/14 10:25:15;;;;;;;3.00;0.60;;;16.20;32.10;;;;;;5072319;28;20478;-82
2021/04/14 10:27:41;;;;;;;2.40;0.20;;;18.10;1.00;;;;;;5053916;28;20840;-83
2021/04/14 10:30:08;;;;;;;2.27;0.53;;;20.20;1.00;;;;;;5071874;28;20447;-83
2021/04/14 10:32:34;;;;;;;4.03;0.53;;;21.00;1.00;;;;;;5071927;28;20197;-83
2021/04/14 10:35:12;;;;;;;3.73;0.60;;;21.50;1.00;;;;;;5072048;28;20416;-85
2021/04/14 10:37:46;;;;;;;1.37;0.30;;;;;;;;;;5071621;28;20821;-85
2021/04/14 10:40:32;;;;;;;5.53;0.67;;;;;;;;;;5054164;28;20437;-83
2021/04/14 10:43:09;;;;;;;1.27;0.20;;;;;;;;;;5050950;28;20771;-84
2021/04/14 10:45:35;;;;;;;1.63;0.40;;;;;;;;;;5070629;28;20517;-84
2021/04/14 10:48:04;;;;;;;2.50;0.27;;;;;;;;;;5054244;28;20491;-84
2021/04/14 10:50:31;;;;;;;3.77;0.47;;;;;;;;;;5072017;28;20460;-83
2021/04/14 10:53:08;;;;;;;2.90;0.33;;;15.70;1.00;;;;;;5071891;28;20952;-87
2021/04/14 10:55:39;;;;;;;4.63;0.60;;;14.80;1.00;;;;;;5071540;28;20901;-83
2021/04/14 10:58:07;;;;;;;2.57;0.30;;;14.30;1.00;;;;;;5071915;28;20694;-83
2021/04/14 11:00:38;;;;;;;1.83;0.30;;;15.30;1.00;;;;;;5071779;28;20404;-83
2021/04/14 11:03:10;;;;;;;2.00;0.47;;;17.20;1.00;;;;;;5054109;28;20418;-84
2021/04/14 11:05:49;;;;;;;3.40;0.33;;;18.80;1.00;;;;;;5075797;28;20399;-86
2021/04/14 11:08:16;;;;;;;2.00;0.40;;;;;;;;;;5075482;28;20411;-84
2021/04/14 11:10:45;;;;;;;1.60;0.37;;;;;;;;;;5075413;28;20407;-85
2021/04/14 11:13:17;;;;;;;2.50;1.03;;;;;;;;;;5072592;28;20461;-84
2021/04/14 11:15:45;;;;;;;1.70;0.43;;;;;;;;;;5075544;28;20409;-83
2021/04/14 11:18:12;;;;;;;1.43;0.40;;;;;;;;;;5067150;28;20453;-84
2021/04/14 11:21:12;;;;;;;3.83;0.33;;;;;;;;;;5070224;28;20940;-82
2021/04/14 11:23:45;;;;;;;3.27;1.33;;;;;;;;;;5071197;28;20437;-82
2021/04/14 11:26:11;;;;;;;1.43;0.20;;;;;;;;;;5076291;28;20417;-81
2021/04/14 11:28:45;;;;;;;1.53;0.30;;;;;;;;;;5076368;28;20405;-81
2021/04/14 11:31:12;;;;;;;2.30;0.80;;;;;;;;;;5076384;28;20772;-81
2021/04/14 11:33:43;;;;;;;2.00;0.30;;;;;;;;;;5076403;28;20482;-82
2021/04/14 11:36:27;;;;;;;1.40;0.40;;;14.80;1.00;;;;;;5067951;28;20417;-83
2021/04/14 11:39:17;;;;;;;1.17;0.20;;;14.50;1.00;;;;;;5064172;28;20473;-82
2021/04/14 11:41:50;;;;;;;2.00;0.43;;;14.30;1.00;;;;;;5056998;28;20509;-83
2021/04/14 11:44:36;;;;;;;0.60;0.37;;;14.20;1.00;;;;;;5071330;28;20408;-83
2021/04/14 11:47:04;;;;;;;1.63;0.20;;;14.20;1.00;;;;;;5086317;28;20412;-81
2021/04/14 11:49:36;;;;;;;1.80;0.20;;;14.40;1.00;;;;;;5057124;28;20418;-83
2021/04/14 11:52:31;;;;;;;1.43;0.40;;;14.70;1.00;;;;;;5063963;28;20456;-82
2021/04/14 11:55:08;;;;;;;2.53;0.70;;;14.90;1.00;;;;;;5066181;28;20781;-83
2021/04/14 11:57:41;;;;;;;1.47;0.50;;;15.30;1.00;;;;;;5063252;28;20415;-82
2021/04/14 12:00:21;;;;;;;2.40;0.20;;;15.90;1.00;;;;;;5037370;28;20432;-82
2021/04/14 12:02:52;;;;;;;2.60;0.30;;;16.10;1.00;;;;;;5055011;28;20466;-83
2021/04/14 12:05:18;;;;;;;2.07;0.40;;;15.80;1.00;;;;;;5054951;28;20444;-83
2021/04/14 12:07:44;;;;;;;1.10;0.20;;;16.20;1.00;;;;;;5054222;28;20502;-83
2021/04/14 12:10:11;;;;;;;3.30;0.30;;;17.80;1.00;;;;;;5044843;28;20569;-85
2021/04/14 12:12:39;;;;;;;4.40;0.53;;;;;;;;;;5063762;28;20564;-82
2021/04/14 12:15:08;;;;;;;2.50;0.97;;;;;;;;;;5055076;28;20420;-84
2021/04/14 12:17:35;;;;;;;4.90;0.67;;;;;;;;;;5054997;28;20412;-82
2021/04/14 12:20:01;;;;;;;2.30;0.40;;;22.70;1.00;;;;;;5054926;28;20457;-82
2021/04/14 12:22:28;;;;;;;1.53;0.40;;;22.80;1.00;;;;;;5057172;28;20457;-84
2021/04/14 12:24:54;;;;;;;2.57;0.30;;;24.00;1.00;;;;;;5065265;28;20483;-83
2021/04/14 12:27:21;;;;;;;1.67;0.20;;;24.90;1.00;;;;;;5063440;28;20415;-85
2021/04/14 12:29:55;;;;;;;0.80;0.20;;;25.50;1.00;;;;;;5064734;28;20172;-82
2021/04/14 12:32:21;;;;;;;2.20;0.83;;;;;;;;;;5062925;28;20537;-81
2021/04/14 12:34:47;;;;;;;0.67;0.60;;;25.60;1.00;;;;;;5068694;28;20901;-82
2021/04/14 12:37:14;;;;;;;2.03;0.10;;;;;;;;;;5066069;28;20422;-82
2021/04/14 12:39:40;;;;;;;4.03;0.30;;;;;;;;;;5064704;28;20631;-83
2021/04/14 12:42:06;;;;;;;1.50;0.20;;;;;;;;;;5062390;28;20409;-82
2021/04/14 12:44:32;;;;;;;3.40;0.50;;;;;;;;;;5064820;28;20422;-83
2021/04/14 12:46:59;;;;;;;1.17;0.23;;;;;;;;;;5065101;28;20739;-82
2021/04/14 12:49:25;;;;;;;1.47;0.33;;;;;;;;;;5059590;28;20446;-83
2021/04/14 12:51:55;;;;;;;0.90;0.33;;;;;;;;;;5042551;28;20505;-81
2021/04/14 12:54:36;;;;;;;1.17;0.20;;;;;;;;;;5071583;28;20443;-83
2021/04/14 12:57:06;;;;;;;1.70;0.30;;;;;;;;;;5068286;28;20466;-83
2021/04/14 12:59:52;;;;;;;1.23;0.70;;;;;;;;;;5061633;28;20423;-86
2021/04/14 13:02:23;;;;;;;2.10;0.60;;;;;;;;;;5074313;28;20433;-83
2021/04/14 13:04:49;;;;;;;1.77;0.30;;;;;;;;;;5074130;28;20414;-82
2021/04/14 13:07:34;;;;;;;2.70;0.20;;;;;;;;;;5071817;28;20430;-82
2021/04/14 13:10:02;;;;;;;1.67;0.37;;;;;;;;;;5064619;28;20432;-82
2021/04/14 13:12:30;;;;;;;6.40;0.50;;;;;;;;;;5064307;28;20495;-82
2021/04/14 13:14:56;;;;;;;2.80;0.33;;;;;;;;;;5041304;28;20946;-82
2021/04/14 13:17:25;;;;;;;2.80;0.47;;;;;;;;;;5053736;28;20428;-83
2021/04/14 13:19:51;;;;;;;2.47;0.47;;;18.70;1.00;;;;;;5053892;28;20468;-83
2021/04/14 13:22:19;;;;;;;2.80;0.40;;;;;;;;;;5053541;28;20498;-84
2021/04/14 13:24:50;;;;;;;0.93;0.23;;;;;;;;;;5054045;28;20414;-84
2021/04/14 13:27:26;;;;;;;2.47;0.50;;;18.00;1.00;;;;;;5065307;28;20416;-83
2021/04/14 13:30:06;;;;;;;2.23;0.30;;;18.40;1.00;;;;;;5070138;28;20433;-84
2021/04/14 13:32:48;;;;;;;1.40;0.20;;;19.70;1.00;;;;;;5073596;28;20468;-84